Time;durP1;ratioP1;P1;durP2;ratioP2;P2;SDS_P1;SDS_P2;PMS_P1;PMS_P2;Temp;Humidity;BMP_temperature;BMP_pressure;BME280_temperature;BME280_humidity;BME280_pressure;Samples;Min_cycle;Max_cycle;Signal;HPM_P1;HPM_P2
2022/02/11 00:08:58;;;;;;;1999.90;999.90;;;;;;;10.21;77.40;165122.94;5020726;28;20419;-67
2022/02/11 00:11:37;;;;;;;1999.90;999.90;;;;;;;9.97;78.13;165056.84;5022086;28;20092;-67
2022/02/11 00:14:06;;;;;;;1999.90;999.90;;;;;;;9.80;78.98;165012.81;5016318;28;20079;-68
2022/02/11 00:16:34;;;;;;;1999.90;999.90;;;;;;;9.94;79.09;165049.94;5026857;28;20085;-67
2022/02/11 00:19:00;;;;;;;1999.90;999.90;;;;;;;9.86;79.37;165027.94;5024353;28;20054;-68
2022/02/11 00:21:28;;;;;;;1999.90;999.90;;;;;;;9.93;79.34;165047.22;5021292;28;20099;-67
2022/02/11 00:23:56;;;;;;;1999.90;999.90;;;;;;;10.02;79.11;165070.66;5022605;28;20490;-67
2022/02/11 00:26:36;;;;;;;1999.90;999.90;;;;;;;10.26;78.35;165135.34;5021070;28;20486;-67
2022/02/11 00:32:08;;;;;;;1999.90;999.90;;;;;;;10.22;78.53;165124.31;5022442;28;20092;-67
2022/02/11 00:34:47;;;;;;;1999.90;999.90;;;;;;;9.92;79.48;165044.47;5014207;28;20046;-67
2022/02/11 00:37:20;;;;;;;1999.90;999.90;;;;;;;9.77;79.84;165004.53;5026996;28;20161;-67
2022/02/11 00:43:20;;;;;;;1999.90;999.90;;;;;;;9.89;79.73;165034.84;5022472;28;20081;-68
2022/02/11 01:04:00;;;;;;;1999.90;999.90;;;;;;;9.27;81.73;164869.66;5014696;28;20045;-68
2022/02/11 01:06:28;;;;;;;1999.90;999.90;;;;;;;9.49;81.15;164930.19;5024504;28;20510;-68
2022/02/11 01:08:54;;;;;;;1999.90;999.90;;;;;;;9.74;80.03;164996.28;5025328;28;20442;-68
2022/02/11 01:11:49;;;;;;;1999.90;999.90;;;;;;;9.80;79.73;165012.81;5023903;28;20088;-68
2022/02/11 01:14:10;;;;;;;1999.90;999.90;;;;;;;9.63;80.06;164967.41;5024071;28;20049;-68
2022/02/11 01:16:45;;;;;;;1999.90;999.90;;;;;;;9.87;79.58;165030.72;5016553;28;20085;-68
2022/02/11 01:25:21;;;;;;;1999.90;999.90;;;;;;;9.94;79.37;165049.94;5018963;28;20053;-68
2022/02/11 01:36:05;;;;;;;1999.90;999.90;;;;;;;9.75;79.94;164997.66;5012712;28;20045;-67
2022/02/11 01:38:54;;;;;;;1999.90;999.90;;;;;;;9.77;79.94;165004.53;5015616;28;20042;-68
2022/02/11 01:47:23;;;;;;;1999.90;999.90;;;;;;;9.99;79.50;165062.38;5020229;28;21441;-68
2022/02/11 01:50:10;;;;;;;1999.90;999.90;;;;;;;9.78;79.69;165007.31;5015682;28;20414;-68
2022/02/11 01:52:59;;;;;;;1999.90;999.90;;;;;;;9.86;79.80;165027.94;5018688;28;20488;-68
2022/02/11 01:58:55;;;;;;;1999.90;999.90;;;;;;;9.63;80.38;164966.00;5025045;28;20055;-68
2022/02/11 02:01:42;;;;;;;1999.90;999.90;;;;;;;9.73;79.96;164993.53;5020682;28;20072;-68
2022/02/11 02:04:46;;;;;;;1999.90;999.90;;;;;;;10.02;79.03;165070.66;5019418;28;20077;-68
2022/02/11 02:12:28;;;;;;;1999.90;999.90;;;;;;;9.72;79.51;164990.81;5015223;28;20077;-68
2022/02/11 02:18:25;;;;;;;1999.90;999.90;;;;;;;9.69;80.41;164982.50;5020151;28;20092;-68
2022/02/11 02:23:31;;;;;;;1999.90;999.90;;;;;;;9.89;79.79;165034.84;5023613;28;20088;-67
2022/02/11 02:34:36;;;;;;;1999.90;999.90;;;;;;;8.95;82.54;164785.75;5014735;28;20093;-67
2022/02/11 02:37:18;;;;;;;1999.90;999.90;;;;;;;9.09;82.35;164822.88;5017881;28;20054;-66
2022/02/11 02:56:37;;;;;;;1999.90;999.90;;;;;;;8.47;84.43;164656.47;5023418;28;20076;-67
2022/02/11 03:02:01;;;;;;;1999.90;999.90;;;;;;;9.15;82.07;164838.03;5016563;28;20081;-68
2022/02/11 03:55:06;;;;;;;1999.90;999.90;;;;;;;9.30;82.32;164879.31;5020173;28;20506;-67
2022/02/11 04:56:42;;;;;;;1999.90;999.90;;;;;;;9.32;85.22;164884.81;5025787;28;20096;-67
2022/02/11 05:01:54;;;;;;;1999.90;999.90;;;;;;;9.05;85.51;164811.91;5024822;28;20505;-67
2022/02/11 05:04:21;;;;;;;1999.90;999.90;;;;;;;8.98;85.67;164792.63;5022855;28;20053;-67
2022/02/11 05:06:47;;;;;;;1999.90;999.90;;;;;;;8.69;86.39;164714.22;5016061;28;20439;-67
2022/02/11 05:09:14;;;;;;;1999.90;999.90;;;;;;;8.87;86.21;164762.34;5014455;28;20420;-67
2022/02/11 05:11:41;;;;;;;1999.90;999.90;;;;;;;9.04;85.49;164809.13;5023190;28;20092;-67
2022/02/11 05:14:09;;;;;;;1999.90;999.90;;;;;;;8.92;85.17;164777.50;5015359;28;20057;-67
2022/02/11 05:16:35;;;;;;;1999.90;999.90;;;;;;;8.97;84.83;164789.88;5011766;28;20073;-67
2022/02/11 05:19:04;;;;;;;1999.90;999.90;;;;;;;8.91;84.52;164773.38;5020152;28;20273;-67
2022/02/11 05:21:30;;;;;;;1999.90;999.90;;;;;;;8.61;85.44;164693.59;5024544;28;20053;-67
2022/02/11 05:23:57;;;;;;;1999.90;999.90;;;;;;;8.68;84.98;164712.84;5016876;28;20078;-67
2022/02/11 05:26:23;;;;;;;1999.90;999.90;;;;;;;8.89;84.24;164769.25;5019652;28;20445;-67
2022/02/11 05:28:50;;;;;;;1999.90;999.90;;;;;;;8.69;84.56;164715.56;5017324;28;20386;-67
2022/02/11 05:31:16;;;;;;;1999.90;999.90;;;;;;;8.73;84.36;164725.22;5016803;28;20130;-67
2022/02/11 05:33:43;;;;;;;1999.90;999.90;;;;;;;8.75;84.39;164732.13;5017648;28;20085;-67
2022/02/11 05:36:09;;;;;;;1999.90;999.90;;;;;;;8.78;84.15;164740.38;5021948;28;20076;-67
2022/02/11 05:38:36;;;;;;;1999.90;999.90;;;;;;;8.78;84.03;164740.38;5025287;28;20358;-67
2022/02/11 05:41:03;;;;;;;1999.90;999.90;;;;;;;8.81;83.90;164747.22;5027266;28;20073;-68
2022/02/11 05:43:30;;;;;;;1999.90;999.90;;;;;;;8.67;84.54;164710.09;5028831;28;20107;-67
2022/02/11 05:45:56;;;;;;;1999.90;999.90;;;;;;;8.82;84.13;164751.34;5023178;28;20375;-67
2022/02/11 05:48:23;;;;;;;1999.90;999.90;;;;;;;8.72;84.33;164723.81;5025101;28;20354;-67
2022/02/11 05:50:49;;;;;;;1999.90;999.90;;;;;;;8.86;83.95;164759.56;5017208;28;20406;-67
2022/02/11 05:53:16;;;;;;;1999.90;999.90;;;;;;;8.95;83.51;164785.75;5014211;28;20073;-67
2022/02/11 05:55:42;;;;;;;1999.90;999.90;;;;;;;8.93;83.47;164778.84;5013603;28;20074;-67
2022/02/11 05:58:09;;;;;;;1999.90;999.90;;;;;;;9.01;83.28;164799.47;5022360;28;20053;-67
2022/02/11 06:00:35;;;;;;;1999.90;999.90;;;;;;;8.84;83.72;164755.47;5016530;28;20054;-67
2022/02/11 06:03:02;;;;;;;1999.90;999.90;;;;;;;8.90;83.78;164770.59;5024314;28;20205;-67
2022/02/11 06:05:28;;;;;;;1999.90;999.90;;;;;;;8.80;83.83;164744.50;5016140;28;20107;-67
2022/02/11 06:07:55;;;;;;;1999.90;999.90;;;;;;;9.04;83.18;164809.13;5023940;28;20517;-67
2022/02/11 06:10:21;;;;;;;1999.90;999.90;;;;;;;9.06;83.19;164813.25;5012045;28;20382;-67
2022/02/11 06:12:48;;;;;;;1999.90;999.90;;;;;;;9.08;82.77;164820.16;5016522;28;20057;-67
2022/02/11 06:15:14;;;;;;;1999.90;999.90;;;;;;;9.03;83.10;164805.00;5023513;28;20076;-67
2022/02/11 06:17:41;;;;;;;1999.90;999.90;;;;;;;9.14;82.57;164835.25;5023962;28;20061;-67
2022/02/11 06:20:08;;;;;;;1999.90;999.90;;;;;;;9.04;83.13;164809.13;5023806;28;20145;-67
2022/02/11 06:22:36;;;;;;;1999.90;999.90;;;;;;;9.06;82.86;164814.63;5024239;28;20068;-67
2022/02/11 06:25:03;;;;;;;1999.90;999.90;;;;;;;8.93;83.26;164780.25;5021513;28;20084;-67
2022/02/11 06:27:29;;;;;;;1999.90;999.90;;;;;;;8.94;83.23;164782.97;5022453;28;20072;-67
2022/02/11 06:29:56;;;;;;;1999.90;999.90;;;;;;;9.04;83.03;164809.13;5024426;28;20113;-67
2022/02/11 06:32:22;;;;;;;1999.90;999.90;;;;;;;8.84;83.62;164755.47;5022538;28;20163;-67
2022/02/11 06:34:50;;;;;;;1999.90;999.90;;;;;;;8.67;83.77;164710.09;5024966;28;20053;-67
2022/02/11 06:37:16;;;;;;;1999.90;999.90;;;;;;;8.62;84.24;164696.34;5022023;28;20081;-67
2022/02/11 06:39:43;;;;;;;1999.90;999.90;;;;;;;8.61;84.49;164693.59;5025135;28;20439;-67
2022/02/11 06:42:09;;;;;;;1999.90;999.90;;;;;;;8.24;85.67;164595.88;5024167;28;20072;-67
2022/02/11 06:44:36;;;;;;;1999.90;999.90;;;;;;;8.33;85.64;164619.25;5022678;28;20085;-68
2022/02/11 06:47:02;;;;;;;1999.90;999.90;;;;;;;8.46;85.12;164653.69;5018127;28;20079;-67
2022/02/11 06:49:31;;;;;;;1999.90;999.90;;;;;;;8.21;86.31;164586.25;5010988;28;20054;-67
2022/02/11 06:51:58;;;;;;;1999.90;999.90;;;;;;;7.89;87.89;164502.41;5010432;28;20328;-67
2022/02/11 06:54:24;;;;;;;1999.90;999.90;;;;;;;7.85;88.76;164490.03;5011333;28;20139;-67
2022/02/11 06:56:51;;;;;;;1999.90;999.90;;;;;;;7.69;89.08;164447.41;5010283;28;20161;-67
2022/02/11 06:59:17;;;;;;;1999.90;999.90;;;;;;;7.55;89.29;164410.31;5009382;28;20452;-67
2022/02/11 07:01:44;;;;;;;1999.90;999.90;;;;;;;7.70;89.63;164450.16;5010831;28;20470;-67
2022/02/11 07:04:13;;;;;;;1999.90;999.90;;;;;;;7.73;89.53;164459.78;5023489;28;20517;-67
2022/02/11 07:06:40;;;;;;;1999.90;999.90;;;;;;;8.05;88.14;164543.63;5023796;28;20069;-67
2022/02/11 07:09:06;;;;;;;1999.90;999.90;;;;;;;8.08;87.85;164551.88;5020002;28;20480;-67
2022/02/11 07:11:33;;;;;;;1999.90;999.90;;;;;;;8.00;88.20;164529.91;5022825;28;20172;-67
2022/02/11 07:13:59;;;;;;;1999.90;999.90;;;;;;;7.85;88.65;164490.03;5023006;28;20272;-67
2022/02/11 07:16:26;;;;;;;1999.90;999.90;;;;;;;7.79;88.46;164473.53;5023944;28;20149;-68
2022/02/11 07:18:52;;;;;;;1999.90;999.90;;;;;;;7.49;89.88;164395.19;5024526;28;20419;-68
2022/02/11 07:21:19;;;;;;;1999.90;999.90;;;;;;;7.51;90.11;164399.31;5016249;28;20068;-68
2022/02/11 07:23:45;;;;;;;1999.90;999.90;;;;;;;7.37;90.70;164362.22;5022371;28;20140;-68
2022/02/11 07:26:12;;;;;;;1999.90;999.90;;;;;;;7.58;89.65;164419.91;5023707;28;20089;-68
2022/02/11 07:28:39;;;;;;;1999.90;999.90;;;;;;;7.92;88.71;164509.28;5024545;28;20442;-68
2022/02/11 07:31:06;;;;;;;1999.90;999.90;;;;;;;8.17;87.72;164576.59;5022433;28;20483;-68
2022/02/11 07:33:32;;;;;;;1999.90;999.90;;;;;;;8.54;86.24;164674.31;5021045;28;20280;-68
2022/02/11 07:35:59;;;;;;;1999.90;999.90;;;;;;;8.36;86.42;164626.16;5015878;28;20199;-68
2022/02/11 07:38:26;;;;;;;1999.90;999.90;;;;;;;8.18;87.13;164578.03;5020859;28;20062;-68
2022/02/11 07:40:52;;;;;;;1999.90;999.90;;;;;;;8.20;87.02;164583.50;5023639;28;20111;-68
2022/02/11 07:43:19;;;;;;;1999.90;999.90;;;;;;;8.42;86.15;164644.00;5023029;28;20061;-68
2022/02/11 07:46:05;;;;;;;1999.90;999.90;;;;;;;8.07;86.37;164549.16;5021081;28;20055;-68
2022/02/11 07:48:32;;;;;;;1999.90;999.90;;;;;;;8.38;85.70;164633.03;5019739;28;20078;-68
2022/02/11 07:51:00;;;;;;;1999.90;999.90;;;;;;;8.35;85.89;164623.38;5023460;28;20468;-68
2022/02/11 07:53:26;;;;;;;1999.90;999.90;;;;;;;8.28;85.58;164605.53;5022502;28;20061;-68
2022/02/11 07:55:54;;;;;;;1999.90;999.90;;;;;;;8.20;86.04;164583.50;5022118;28;20122;-68
2022/02/11 07:58:25;;;;;;;1999.90;999.90;;;;;;;7.70;87.65;164451.53;5023774;28;20082;-68
2022/02/11 08:00:53;;;;;;;1999.90;999.90;;;;;;;8.15;86.58;164569.78;5024891;28;20053;-68
2022/02/11 08:03:20;;;;;;;1999.90;999.90;;;;;;;8.20;86.02;164584.91;5027761;28;20080;-68
2022/02/11 08:05:46;;;;;;;1999.90;999.90;;;;;;;8.45;84.96;164650.94;5027879;28;20148;-68
2022/02/11 08:08:13;;;;;;;1999.90;999.90;;;;;;;7.97;86.04;164523.00;5024205;28;20076;-68
2022/02/11 08:10:39;;;;;;;1999.90;999.90;;;;;;;7.79;87.49;164474.91;5024633;28;20678;-68
2022/02/11 08:13:06;;;;;;;1999.90;999.90;;;;;;;7.94;86.47;164516.13;5025997;28;20062;-68
2022/02/11 08:15:33;;;;;;;1999.90;999.90;;;;;;;7.84;87.17;164487.25;5027276;28;20046;-68
2022/02/11 08:17:59;;;;;;;1999.90;999.90;;;;;;;8.15;86.58;164569.78;5027411;28;20088;-68
2022/02/11 08:20:26;;;;;;;1999.90;999.90;;;;;;;7.92;86.74;164509.28;5025517;28;20084;-68
2022/02/11 08:22:52;;;;;;;1999.90;999.90;;;;;;;7.94;86.65;164514.75;5024338;28;20104;-68
2022/02/11 08:25:19;;;;;;;1999.90;999.90;;;;;;;7.51;88.13;164400.66;5024818;28;20085;-68
2022/02/11 08:27:47;;;;;;;1999.90;999.90;;;;;;;7.13;90.23;164299.00;5028547;28;20140;-68
2022/02/11 08:30:34;;;;;;;1999.90;999.90;;;;;;;7.31;90.36;164345.69;5025979;28;20342;-68
2022/02/11 08:33:00;;;;;;;1999.90;999.90;;;;;;;7.19;90.35;164315.47;5026460;28;20144;-68
2022/02/11 08:35:27;;;;;;;1999.90;999.90;;;;;;;6.76;91.96;164198.66;5024032;28;20077;-68
2022/02/11 08:37:53;;;;;;;1999.90;999.90;;;;;;;6.86;91.75;164226.13;5024868;28;20061;-68
2022/02/11 08:40:20;;;;;;;1999.90;999.90;;;;;;;6.88;91.38;164231.66;5025827;28;20131;-68
2022/02/11 08:42:47;;;;;;;1999.90;999.90;;;;;;;7.31;90.54;164347.09;5025089;28;20061;-68
2022/02/11 08:45:13;;;;;;;1999.90;999.90;;;;;;;7.50;89.63;164396.53;5021482;28;20393;-68
2022/02/11 08:47:40;;;;;;;1999.90;999.90;;;;;;;6.93;91.70;164245.38;5023654;28;20457;-68
2022/02/11 08:50:07;;;;;;;1999.90;999.90;;;;;;;6.84;92.12;164220.66;5023592;28;20161;-68
2022/02/11 08:52:33;;;;;;;1999.90;999.90;;;;;;;7.10;91.09;164290.75;5028405;28;20133;-67
2022/02/11 08:55:00;;;;;;;1999.90;999.90;;;;;;;7.19;90.20;164314.06;5026083;28;20444;-67
2022/02/11 08:57:32;;;;;;;1999.90;999.90;;;;;;;6.77;92.18;164201.41;5024692;28;20046;-67
2022/02/11 09:00:00;;;;;;;1999.90;999.90;;;;;;;7.38;90.45;164366.31;5024098;28;20374;-67
2022/02/11 09:02:26;;;;;;;1999.90;999.90;;;;;;;7.36;89.44;164360.81;5023798;28;20158;-67
2022/02/11 09:04:57;;;;;;;1999.90;999.90;;;;;;;7.32;90.21;164348.44;5025691;28;20072;-67
2022/02/11 09:07:23;;;;;;;1999.90;999.90;;;;;;;7.37;89.41;164363.56;5022040;28;20668;-67
2022/02/11 09:09:50;;;;;;;1999.90;999.90;;;;;;;7.16;90.66;164307.22;5022586;28;20250;-68
2022/02/11 09:12:16;;;;;;;1999.90;999.90;;;;;;;7.63;88.55;164432.28;5024358;28;20080;-68
2022/02/11 09:14:43;;;;;;;1999.90;999.90;;;;;;;7.54;89.53;164407.53;5023125;28;20829;-68
2022/02/11 09:17:09;;;;;;;1999.90;999.90;;;;;;;7.76;88.68;164466.66;5024435;28;20505;-68
2022/02/11 09:19:36;;;;;;;1999.90;999.90;;;;;;;7.76;88.53;164468.00;5027133;28;20041;-68
2022/02/11 09:22:03;;;;;;;1999.90;999.90;;;;;;;7.84;87.82;164488.63;5014495;28;20052;-68
2022/02/11 09:24:29;;;;;;;1999.90;999.90;;;;;;;7.23;89.81;164326.47;5022973;28;20093;-68
2022/02/11 09:26:56;;;;;;;1999.90;999.90;;;;;;;7.46;89.29;164385.53;5025653;28;20076;-68
2022/02/11 09:29:22;;;;;;;1999.90;999.90;;;;;;;7.42;89.59;164375.94;5024073;28;20045;-67
2022/02/11 09:31:50;;;;;;;1999.90;999.90;;;;;;;7.58;88.69;164419.91;5012867;28;20054;-67
2022/02/11 09:34:16;;;;;;;1999.90;999.90;;;;;;;7.79;88.20;164473.53;5022558;28;20064;-67
2022/02/11 09:36:43;;;;;;;1999.90;999.90;;;;;;;7.88;87.86;164499.63;5025798;28;20046;-67
2022/02/11 09:39:11;;;;;;;1999.90;999.90;;;;;;;7.40;88.85;164370.44;5023378;28;20096;-67
2022/02/11 09:41:38;;;;;;;1999.90;999.90;;;;;;;7.64;89.34;164433.69;5021766;28;20054;-67
2022/02/11 09:44:06;;;;;;;1999.90;999.90;;;;;;;7.96;87.92;164520.25;5020481;28;20119;-67
2022/02/11 09:46:36;;;;;;;1999.90;999.90;;;;;;;7.67;88.49;164443.28;5015450;28;20049;-67
2022/02/11 09:49:02;;;;;;;1999.90;999.90;;;;;;;7.09;90.78;164286.63;5021594;28;20330;-67
2022/02/11 09:51:27;;;;;;;1999.90;999.90;;;;;;;7.25;90.27;164330.59;5025409;28;20041;-67
2022/02/11 09:53:54;;;;;;;1999.90;999.90;;;;;;;7.11;90.52;164292.09;5021214;28;20051;-67
2022/02/11 09:56:21;;;;;;;1999.90;999.90;;;;;;;7.34;89.76;164355.31;5024377;28;20131;-67
2022/02/11 09:59:05;;;;;;;1999.90;999.90;;;;;;;7.50;89.65;164396.53;5016043;28;20049;-68
2022/02/11 10:01:32;;;;;;;1999.90;999.90;;;;;;;7.56;88.57;164413.03;5022625;28;20053;-68
2022/02/11 10:04:26;;;;;;;1999.90;999.90;;;;;;;7.40;89.94;164371.81;5021668;28;20399;-67
2022/02/11 10:06:57;;;;;;;1999.90;999.90;;;;;;;7.28;90.02;164338.84;5003102;28;20078;-68
2022/02/11 10:09:24;;;;;;;1999.90;999.90;;;;;;;7.58;88.36;164419.91;5016727;28;20076;-68
2022/02/11 10:11:53;;;;;;;1999.90;999.90;;;;;;;7.67;87.73;164443.28;5011855;28;20089;-67
2022/02/11 10:14:26;;;;;;;1999.90;999.90;;;;;;;7.95;87.31;164517.53;5012879;28;20631;-68
2022/02/11 10:16:58;;;;;;;1999.90;999.90;;;;;;;7.87;86.47;164495.50;5026124;28;20045;-68
2022/02/11 10:19:42;;;;;;;;;;;;;;;7.36;88.03;164360.81;5026523;28;20100;-69
2022/02/11 10:22:15;;;;;;;1999.90;999.90;;;;;;;7.77;86.83;164469.41;5022064;28;19921;-68
2022/02/11 10:24:44;;;;;;;1999.90;999.90;;;;;;;8.05;86.45;164545.03;5016821;28;20064;-68
2022/02/11 10:27:28;;;;;;;1999.90;999.90;;;;;;;7.76;86.95;164468.00;5013002;28;20077;-68
2022/02/11 10:29:58;;;;;;;1999.90;999.90;;;;;;;7.70;87.15;164450.16;5012528;28;20633;-69
2022/02/11 10:32:46;;;;;;;1999.90;999.90;;;;;;;7.96;86.78;164518.88;5017416;28;20489;-68
2022/02/11 10:35:15;;;;;;;1999.90;999.90;;;;;;;7.80;86.43;164476.25;5015245;28;20041;-69
2022/02/11 10:38:09;;;;;;;1999.90;999.90;;;;;;;7.47;86.81;164388.28;5028291;28;20050;-69
2022/02/11 10:40:40;;;;;;;1999.90;999.90;;;;;;;7.57;86.63;164415.78;5018852;28;20053;-69
2022/02/11 10:43:29;;;;;;;1999.90;999.90;;;;;;;7.31;86.12;164347.09;5022074;28;20351;-69
2022/02/11 10:46:01;;;;;;;1999.90;999.90;;;;;;;7.40;85.25;164371.81;5016822;28;20132;-69
2022/02/11 10:48:34;;;;;;;1999.90;999.90;;;;;;;7.34;84.38;164353.91;5018257;28;20048;-68
2022/02/11 10:51:04;;;;;;;1999.90;999.90;;;;;;;7.42;84.17;164375.94;5015222;28;20367;-68
2022/02/11 10:53:34;;;;;;;1999.90;999.90;;;;;;;7.42;84.09;164374.56;5018809;28;20054;-68
2022/02/11 10:56:02;;;;;;;1999.90;999.90;;;;;;;7.29;83.92;164341.56;5015213;28;20414;-68
2022/02/11 10:58:32;;;;;;;1999.90;999.90;;;;;;;7.46;83.68;164385.53;5011791;28;20064;-67
2022/02/11 11:01:05;;;;;;;1999.90;999.90;;;;;;;7.80;82.56;164477.66;5021800;28;20115;-68
2022/02/11 11:03:35;;;;;;;1999.90;999.90;;;;;;;7.81;82.22;164479.03;5016129;28;20050;-68
2022/02/11 11:06:05;;;;;;;1999.90;999.90;;;;;;;7.45;82.78;164384.19;5027758;28;20055;-68
2022/02/11 11:08:40;;;;;;;1999.90;999.90;;;;;;;7.57;83.09;164417.13;5015568;28;20089;-68
2022/02/11 11:11:12;;;;;;;1999.90;999.90;;;;;;;7.77;82.64;164469.41;5014438;28;20085;-67
2022/02/11 11:13:39;;;;;;;1999.90;999.90;;;;;;;7.47;83.40;164388.28;5016408;28;20057;-68
2022/02/11 11:16:15;;;;;;;1999.90;999.90;;;;;;;7.48;83.24;164391.06;5022746;28;20045;-69
2022/02/11 11:18:43;;;;;;;1999.90;999.90;;;;;;;7.23;84.05;164325.06;5019183;28;20111;-67
2022/02/11 11:21:10;;;;;;;1999.90;999.90;;;;;;;7.37;83.66;164362.22;5012334;28;20053;-67
2022/02/11 11:23:44;;;;;;;1999.90;999.90;;;;;;;7.58;83.19;164419.91;5012099;28;20073;-67
2022/02/11 11:26:11;;;;;;;1999.90;999.90;;;;;;;7.41;83.43;164373.16;5013679;28;20057;-67
2022/02/11 11:28:52;;;;;;;1999.90;999.90;;;;;;;7.08;83.95;164283.88;5011848;28;20104;-67
2022/02/11 11:31:29;;;;;;;1999.90;999.90;;;;;;;7.10;84.16;164289.34;5015793;28;20351;-68
2022/02/11 11:34:14;;;;;;;1999.90;999.90;;;;;;;7.36;83.74;164360.81;5016569;28;20096;-68
2022/02/11 11:36:50;;;;;;;1999.90;999.90;;;;;;;7.19;84.07;164314.06;5018122;28;20045;-68
2022/02/11 11:39:20;;;;;;;1999.90;999.90;;;;;;;7.23;84.30;164325.06;5023108;28;20084;-67
2022/02/11 11:42:02;;;;;;;1999.90;999.90;;;;;;;7.26;83.80;164333.31;5024172;28;20500;-67
2022/02/11 11:44:44;;;;;;;1999.90;999.90;;;;;;;7.49;83.25;164393.75;5016497;28;20046;-68
2022/02/11 11:47:16;;;;;;;1999.90;999.90;;;;;;;7.65;82.83;164436.38;5015158;28;20041;-68
2022/02/11 11:49:50;;;;;;;1999.90;999.90;;;;;;;7.37;84.02;164362.22;5022748;28;20130;-68
2022/02/11 11:52:17;;;;;;;1999.90;999.90;;;;;;;7.68;83.53;164446.03;5030618;28;20049;-68
2022/02/11 11:54:43;;;;;;;1999.90;999.90;;;;;;;7.98;82.04;164524.38;5027348;28;20634;-68
2022/02/11 11:57:17;;;;;;;1999.90;999.90;;;;;;;7.83;82.15;164485.91;5025767;28;20038;-68
2022/02/11 11:59:49;;;;;;;1999.90;999.90;;;;;;;7.46;83.07;164385.53;5020853;28;20104;-69
2022/02/11 12:02:17;;;;;;;1999.90;999.90;;;;;;;7.26;84.62;164333.31;5027329;28;20054;-68
2022/02/11 12:04:46;;;;;;;1999.90;999.90;;;;;;;7.01;85.67;164265.97;5023012;28;20050;-69
2022/02/11 12:07:24;;;;;;;1999.90;999.90;;;;;;;7.01;88.69;164267.38;5025569;28;20427;-69
2022/02/11 12:09:53;;;;;;;1999.90;999.90;;;;;;;6.75;90.42;164195.94;5025536;28;20144;-69
2022/02/11 12:12:22;;;;;;;1999.90;999.90;;;;;;;6.86;95.99;164226.13;5022413;28;20096;-68
2022/02/11 12:14:52;;;;;;;1999.90;999.90;;;;;;;5.81;100.00;163947.31;5012861;28;20054;-69
2022/02/11 12:17:21;;;;;;;1999.90;999.90;;;;;;;5.52;100.00;163869.06;5022273;28;20091;-69
2022/02/11 12:19:47;;;;;;;1999.90;999.90;;;;;;;4.78;100.00;163671.50;5020553;28;20050;-68
2022/02/11 12:22:16;;;;;;;1999.90;999.90;;;;;;;4.86;100.00;163693.41;5025143;28;20096;-69
2022/02/11 12:27:36;;;;;;;1999.90;999.90;;;;;;;4.18;100.00;163512.41;5022261;28;20323;-69
2022/02/11 12:30:19;;;;;;;1999.90;999.90;;;;;;;3.85;100.00;163424.59;5023851;28;20050;-69
2022/02/11 12:32:52;;;;;;;1999.90;999.90;;;;;;;3.52;100.00;163336.88;5021254;28;20423;-68
2022/02/11 12:35:27;;;;;;;1999.90;999.90;;;;;;;3.47;100.00;163323.19;5023829;28;20111;-69
2022/02/11 12:37:56;;;;;;;1999.90;999.90;;;;;;;3.76;100.00;163398.59;5024732;28;20091;-67
2022/02/11 12:40:27;;;;;;;1999.90;999.90;;;;;;;3.65;100.00;163371.16;5023300;28;20046;-67
2022/02/11 12:42:57;;;;;;;1999.90;999.90;;;;;;;3.38;100.00;163298.53;5024262;28;20060;-68
2022/02/11 12:45:30;;;;;;;1999.90;999.90;;;;;;;3.59;100.00;163353.31;5021945;28;20127;-68
2022/02/11 12:47:57;;;;;;;1999.90;999.90;;;;;;;3.12;100.00;163229.97;5018743;28;20095;-68
2022/02/11 12:50:38;;;;;;;1999.90;999.90;;;;;;;3.16;100.00;163239.59;5021440;28;20343;-68
2022/02/11 12:53:07;;;;;;;1999.90;999.90;;;;;;;3.28;100.00;163271.13;5021452;28;20088;-68
2022/02/11 12:55:38;;;;;;;1999.90;999.90;;;;;;;3.79;100.00;163408.16;5014942;28;20053;-68
2022/02/11 12:58:11;;;;;;;1999.90;999.90;;;;;;;4.01;100.00;163467.13;5024824;28;20123;-68
2022/02/11 13:00:39;;;;;;;1999.90;999.90;;;;;;;3.25;100.00;163262.91;5023184;28;20442;-67
2022/02/11 13:03:09;;;;;;;1999.90;999.90;;;;;;;2.95;100.00;163184.78;5015750;28;20360;-68
2022/02/11 13:05:44;;;;;;;1999.90;999.90;;;;;;;2.39;100.00;163034.09;5020860;28;20091;-67
2022/02/11 13:08:31;;;;;;;1999.90;999.90;;;;;;;2.49;100.00;163061.50;5017956;28;20041;-68
2022/02/11 13:11:01;;;;;;;1999.90;999.90;;;;;;;2.56;100.00;163079.28;5023325;28;20069;-68
2022/02/11 13:13:30;;;;;;;1999.90;999.90;;;;;;;2.64;100.00;163101.22;5018261;28;20136;-68
2022/02/11 13:15:58;;;;;;;1999.90;999.90;;;;;;;2.45;100.00;163050.53;5018936;28;20057;-67
2022/02/11 13:18:27;;;;;;;1999.90;999.90;;;;;;;2.54;100.00;163075.16;5016371;28;20111;-68
2022/02/11 13:20:54;;;;;;;1999.90;999.90;;;;;;;2.32;100.00;163016.28;5019112;28;20095;-67
2022/02/11 13:23:25;;;;;;;1999.90;999.90;;;;;;;2.18;100.00;162977.97;5018212;28;20046;-68
2022/02/11 13:25:55;;;;;;;1999.90;999.90;;;;;;;2.32;100.00;163014.91;5015127;28;20092;-68
2022/02/11 13:28:24;;;;;;;1999.90;999.90;;;;;;;2.37;100.00;163030.00;5027938;28;20049;-68
2022/02/11 13:30:57;;;;;;;1999.90;999.90;;;;;;;2.49;100.00;163060.09;5021440;28;20478;-68
2022/02/11 13:33:26;;;;;;;1999.90;999.90;;;;;;;2.36;100.00;163027.25;5012953;28;20148;-68
2022/02/11 13:35:55;;;;;;;1999.90;999.90;;;;;;;2.18;100.00;162977.97;5016502;28;20089;-68
2022/02/11 13:38:29;;;;;;;1999.90;999.90;;;;;;;2.05;100.00;162943.72;5014439;28;20080;-68
2022/02/11 13:40:57;;;;;;;1999.90;999.90;;;;;;;2.02;100.00;162935.50;5022794;28;20108;-66
2022/02/11 13:43:26;;;;;;;1999.90;999.90;;;;;;;2.23;100.00;162993.03;5016928;28;20390;-67
2022/02/11 13:46:02;;;;;;;1999.90;999.90;;;;;;;2.36;100.00;163025.88;5018901;28;20081;-66
2022/02/11 13:48:31;;;;;;;1999.90;999.90;;;;;;;2.17;100.00;162975.22;5014097;28;20052;-67
2022/02/11 13:51:02;;;;;;;1999.90;999.90;;;;;;;2.19;100.00;162980.66;5014155;28;20070;-68
2022/02/11 13:53:30;;;;;;;1999.90;999.90;;;;;;;2.20;100.00;162983.41;5026387;28;20476;-67
2022/02/11 13:55:57;;;;;;;1999.90;999.90;;;;;;;2.03;100.00;162938.25;5016278;28;20053;-67
2022/02/11 13:58:23;;;;;;;1999.90;999.90;;;;;;;2.43;100.00;163046.41;5012211;28;20078;-68
2022/02/11 14:00:50;;;;;;;1999.90;999.90;;;;;;;2.47;100.00;163057.38;5017525;28;20116;-67
2022/02/11 14:03:30;;;;;;;1999.90;999.90;;;;;;;2.48;100.00;163058.75;5022626;28;20056;-67
2022/02/11 14:06:01;;;;;;;1999.90;999.90;;;;;;;2.67;100.00;163109.44;5018367;28;20084;-67
2022/02/11 14:08:42;;;;;;;1999.90;999.90;;;;;;;2.72;100.00;163123.09;5020591;28;20081;-67
2022/02/11 14:11:10;;;;;;;1999.90;999.90;;;;;;;2.96;100.00;163186.13;5018555;28;20058;-67
2022/02/11 14:13:37;;;;;;;1999.90;999.90;;;;;;;2.59;100.00;163088.91;5015405;28;20346;-67
2022/02/11 14:16:05;;;;;;;1999.90;999.90;;;;;;;2.80;100.00;163143.69;5021960;28;20049;-68
2022/02/11 14:18:31;;;;;;;1999.90;999.90;;;;;;;2.72;100.00;163121.75;5016133;28;20647;-68
2022/02/11 14:20:58;;;;;;;1999.90;999.90;;;;;;;2.69;100.00;163114.91;5021677;28;20086;-68
2022/02/11 14:23:24;;;;;;;1999.90;999.90;;;;;;;2.79;100.00;163140.94;5017510;28;20122;-68
2022/02/11 14:25:51;;;;;;;1999.90;999.90;;;;;;;2.87;100.00;163161.47;5018192;28;20080;-68
2022/02/11 14:28:18;;;;;;;1999.90;999.90;;;;;;;2.45;100.00;163051.88;5014210;28;20107;-66
2022/02/11 14:30:45;;;;;;;1999.90;999.90;;;;;;;2.38;100.00;163031.34;5011101;28;20400;-67
2022/02/11 14:33:12;;;;;;;1999.90;999.90;;;;;;;2.92;100.00;163176.56;5058006;28;20069;-67
2022/02/11 14:35:39;;;;;;;1999.90;999.90;;;;;;;2.86;100.00;163160.13;5022226;28;20045;-68